createdAt,value
2022-08-14T00:00:12.725Z,4.7
2022-08-14T00:01:10.111Z,4.5
2022-08-14T00:02:08.104Z,4.4
2022-08-14T00:03:13.566Z,4.8
2022-08-14T00:04:34.770Z,4.3
2022-08-14T00:05:09.180Z,4.9
2022-08-14T00:06:25.771Z,4.3
2022-08-14T00:07:09.339Z,4.7
2022-08-14T00:08:14.358Z,5.0
2022-08-14T00:09:08.554Z,4.5
2022-08-14T00:10:49.763Z,4.6
2022-08-14T00:11:08.194Z,4.0
2022-08-14T00:12:23.470Z,4.3
2022-08-14T00:13:09.156Z,4.6
2022-08-14T00:14:08.515Z,5.3
2022-08-14T00:15:10.606Z,5.2
2022-08-14T00:16:08.182Z,4.0
2022-08-14T00:17:07.950Z,4.4
2022-08-14T00:18:09.892Z,3.8
2022-08-14T00:19:19.444Z,3.8
2022-08-14T00:20:08.764Z,4.6
2022-08-14T00:21:11.423Z,4.9
2022-08-14T00:22:08.011Z,5.1
2022-08-14T00:23:14.612Z,4.9
2022-08-14T00:24:08.517Z,4.0
2022-08-14T00:25:08.691Z,4.6
2022-08-14T00:26:21.632Z,4.0
2022-08-14T00:27:08.801Z,4.8
2022-08-14T00:28:10.283Z,4.8
2022-08-14T00:29:08.485Z,4.5
2022-08-14T00:30:10.961Z,4.2
2022-08-14T00:31:09.688Z,4.6
2022-08-14T00:32:52.149Z,4.1
2022-08-14T00:33:15.384Z,3.6
2022-08-14T00:34:36.465Z,4.0
2022-08-14T00:35:10.650Z,4.1
2022-08-14T00:36:37.397Z,3.9
2022-08-14T00:37:08.891Z,3.8
2022-08-14T00:38:08.618Z,4.5
2022-08-14T00:39:11.187Z,4.3
2022-08-14T00:40:19.186Z,4.8
2022-08-14T00:41:10.904Z,4.2
2022-08-14T00:42:21.073Z,4.0
2022-08-14T00:43:08.952Z,4.3
2022-08-14T00:44:08.647Z,3.9
2022-08-14T00:45:09.691Z,4.6
2022-08-14T00:46:09.243Z,3.9
2022-08-14T00:47:08.260Z,3.7
2022-08-14T00:48:08.175Z,3.2
2022-08-14T00:49:11.521Z,3.9
2022-08-14T00:50:17.550Z,4.0
2022-08-14T00:51:09.232Z,3.6
2022-08-14T00:52:08.654Z,4.2
2022-08-14T00:53:10.550Z,4.0
2022-08-14T00:54:16.729Z,3.7
2022-08-14T00:55:08.717Z,4.5
2022-08-14T00:56:08.722Z,4.2
2022-08-14T00:57:08.376Z,3.6
2022-08-14T00:58:08.086Z,3.5
2022-08-14T00:59:08.772Z,3.9
2022-08-14T01:00:34.244Z,3.7
2022-08-14T01:01:09.578Z,4.6
2022-08-14T01:02:09.172Z,3.9
2022-08-14T01:03:08.043Z,4.2
2022-08-14T01:04:37.164Z,4.3
2022-08-14T01:05:09.604Z,4.3
2022-08-14T01:06:09.541Z,4.2
2022-08-14T01:07:08.998Z,4.0
2022-08-14T01:08:50.672Z,3.4
2022-08-14T01:09:09.221Z,4.1
2022-08-14T01:10:09.114Z,4.1
2022-08-14T01:11:09.676Z,4.4
2022-08-14T01:12:10.954Z,3.7
2022-08-14T01:13:07.977Z,3.3
2022-08-14T01:14:28.182Z,3.7
2022-08-14T01:15:09.490Z,4.0
2022-08-14T01:16:09.450Z,4.4
2022-08-14T01:17:08.895Z,4.1
2022-08-14T01:18:09.114Z,4.4
2022-08-14T01:19:08.689Z,3.8
2022-08-14T01:20:08.152Z,4.7
2022-08-14T01:21:09.779Z,4.6
2022-08-14T01:22:12.347Z,4.1
2022-08-14T01:23:09.720Z,4.5
2022-08-14T01:24:09.786Z,3.9
2022-08-14T01:25:07.970Z,3.8
2022-08-14T01:26:11.668Z,4.4
2022-08-14T01:27:13.310Z,4.2
2022-08-14T01:28:08.318Z,4.0
2022-08-14T01:29:10.871Z,4.1
2022-08-14T01:30:08.257Z,3.5
2022-08-14T01:31:14.352Z,4.0
2022-08-14T01:32:10.530Z,3.3
2022-08-14T01:33:09.000Z,4.0
2022-08-14T01:35:18.856Z,3.5
2022-08-14T01:35:19.429Z,4.3
2022-08-14T01:36:21.151Z,3.1
2022-08-14T01:37:08.438Z,4.2
2022-08-14T01:38:08.318Z,4.3
2022-08-14T01:39:13.270Z,4.1
2022-08-14T01:40:08.360Z,3.9
2022-08-14T01:41:11.977Z,4.1
2022-08-14T01:42:08.821Z,3.5
2022-08-14T01:43:09.049Z,3.5
2022-08-14T01:44:32.458Z,3.1
2022-08-14T01:45:08.295Z,3.4
2022-08-14T01:46:08.751Z,3.2
2022-08-14T01:47:09.076Z,3.5
2022-08-14T01:48:13.618Z,3.5
2022-08-14T01:49:09.799Z,2.9
2022-08-14T01:50:08.416Z,3.3
2022-08-14T01:51:20.205Z,3.4
2022-08-14T01:52:13.464Z,2.6
2022-08-14T01:53:08.575Z,4.2
2022-08-14T01:54:14.333Z,4.3
2022-08-14T01:55:08.188Z,3.9
2022-08-14T01:56:12.187Z,4.0
2022-08-14T01:57:08.703Z,3.9
2022-08-14T01:58:19.850Z,4.0
2022-08-14T01:59:14.613Z,3.3
2022-08-14T02:00:09.481Z,3.8
2022-08-14T02:01:08.783Z,3.4
2022-08-14T02:02:14.663Z,3.4
2022-08-14T02:03:08.149Z,4.4
2022-08-14T02:04:40.694Z,4.1
2022-08-14T02:05:11.168Z,3.5
2022-08-14T02:06:32.153Z,3.2
2022-08-14T02:07:08.463Z,3.7
2022-08-14T02:08:09.480Z,3.3
2022-08-14T02:09:19.041Z,3.4
2022-08-14T02:10:12.809Z,4.1
2022-08-14T02:11:09.348Z,4.2
2022-08-14T02:12:09.177Z,4.4
2022-08-14T02:13:09.230Z,3.4
2022-08-14T02:14:09.276Z,3.8
2022-08-14T02:15:08.841Z,2.7
2022-08-14T02:16:21.898Z,3.5
2022-08-14T02:17:08.318Z,2.8
2022-08-14T02:18:08.086Z,4.0
2022-08-14T02:19:12.617Z,3.7
2022-08-14T02:20:08.446Z,3.5
2022-08-14T02:21:09.206Z,3.9
2022-08-14T02:22:08.731Z,3.2
2022-08-14T02:23:08.607Z,3.6
2022-08-14T02:24:09.347Z,3.8
2022-08-14T02:25:08.420Z,3.7
2022-08-14T02:26:24.170Z,3.0
2022-08-14T02:28:22.669Z,2.9
2022-08-14T02:28:23.039Z,3.0
2022-08-14T02:29:09.629Z,3.5
2022-08-14T02:30:08.619Z,3.5
2022-08-14T02:31:08.730Z,3.4
2022-08-14T02:32:08.909Z,3.5
2022-08-14T02:33:08.531Z,4.2
2022-08-14T02:34:14.702Z,3.4
2022-08-14T02:35:09.239Z,3.1
2022-08-14T02:37:02.396Z,3.7
2022-08-14T02:37:09.982Z,2.4
2022-08-14T02:38:11.695Z,3.4
2022-08-14T02:39:09.065Z,3.6
2022-08-14T02:40:08.257Z,3.6
2022-08-14T02:41:11.090Z,3.1
2022-08-14T02:42:13.121Z,3.7
2022-08-14T02:43:08.611Z,3.8
2022-08-14T02:44:09.722Z,3.7
2022-08-14T02:45:08.380Z,3.2
2022-08-14T02:46:08.762Z,3.4
2022-08-14T02:47:15.030Z,3.2
2022-08-14T02:48:10.651Z,2.9
2022-08-14T02:49:08.261Z,3.0
2022-08-14T02:50:08.294Z,1.7
2022-08-14T02:51:13.477Z,2.8
2022-08-14T02:52:55.877Z,2.9
2022-08-14T02:53:09.473Z,3.2
2022-08-14T02:54:09.135Z,3.4
2022-08-14T02:55:08.115Z,2.7
2022-08-14T02:56:30.037Z,3.1
2022-08-14T02:57:15.506Z,3.1
2022-08-14T02:58:08.513Z,2.6
2022-08-14T02:59:08.335Z,2.9
2022-08-14T03:00:11.163Z,3.5
2022-08-14T03:01:09.300Z,3.5
2022-08-14T03:02:08.601Z,3.9
2022-08-14T03:03:08.610Z,3.6
2022-08-14T03:04:08.359Z,3.3
2022-08-14T03:05:08.084Z,3.5
2022-08-14T03:06:09.876Z,3.4
2022-08-14T03:07:08.498Z,4.1
2022-08-14T03:08:15.966Z,3.5
2022-08-14T03:09:08.716Z,3.1
2022-08-14T03:10:27.888Z,3.1
2022-08-14T03:11:09.809Z,3.0
2022-08-14T03:12:08.116Z,3.0
2022-08-14T03:13:19.484Z,3.4
2022-08-14T03:14:08.769Z,2.3
2022-08-14T03:15:08.587Z,3.0
2022-08-14T03:16:26.552Z,3.7
2022-08-14T03:17:08.055Z,3.4
2022-08-14T03:18:09.321Z,3.1
2022-08-14T03:19:08.555Z,3.0
2022-08-14T03:20:11.128Z,3.0
2022-08-14T03:21:09.758Z,2.9
2022-08-14T03:22:09.338Z,3.3
2022-08-14T03:23:08.702Z,2.9
2022-08-14T03:24:08.551Z,3.2
2022-08-14T03:25:09.982Z,3.0
2022-08-14T03:26:13.163Z,3.3
2022-08-14T03:27:07.983Z,2.8
2022-08-14T03:28:14.802Z,3.5
2022-08-14T03:29:09.929Z,3.2
2022-08-14T03:30:14.622Z,3.6
2022-08-14T03:31:13.359Z,3.3
2022-08-14T03:32:07.943Z,2.2
2022-08-14T03:33:10.244Z,2.6
2022-08-14T03:34:10.155Z,2.7
2022-08-14T03:35:08.920Z,2.2
2022-08-14T03:37:38.315Z,3.5
2022-08-14T03:37:38.706Z,3.6
2022-08-14T03:39:12.322Z,3.5
2022-08-14T03:39:14.694Z,3.0
2022-08-14T03:40:11.262Z,2.9
2022-08-14T03:41:08.949Z,2.8
2022-08-14T03:42:19.274Z,4.2
2022-08-14T03:43:08.808Z,3.2
2022-08-14T03:45:19.259Z,2.8
2022-08-14T03:45:27.002Z,2.9
2022-08-14T03:46:38.609Z,3.1
2022-08-14T03:47:08.451Z,2.3
2022-08-14T03:48:30.376Z,2.2
2022-08-14T03:49:08.429Z,3.3
2022-08-14T03:50:09.507Z,2.6
2022-08-14T03:51:09.545Z,2.6
2022-08-14T03:52:18.153Z,2.5
2022-08-14T03:53:08.116Z,2.8
2022-08-14T03:54:07.905Z,2.7
2022-08-14T03:55:10.044Z,3.6
2022-08-14T03:56:09.577Z,2.6
2022-08-14T03:57:08.309Z,2.9
2022-08-14T03:58:08.768Z,3.6
2022-08-14T03:59:07.912Z,3.0
2022-08-14T04:00:14.043Z,2.5
2022-08-14T04:01:08.546Z,3.0
2022-08-14T04:02:31.892Z,3.7
2022-08-14T04:03:09.328Z,1.9
2022-08-14T04:04:08.069Z,3.2
2022-08-14T04:05:12.716Z,2.5
2022-08-14T04:06:08.440Z,2.8
2022-08-14T04:07:08.241Z,2.5
2022-08-14T04:08:22.342Z,1.8
2022-08-14T04:09:07.886Z,2.8
2022-08-14T04:10:08.646Z,3.2
2022-08-14T04:11:10.466Z,2.6
2022-08-14T04:12:08.477Z,2.8
2022-08-14T04:13:08.040Z,2.8
2022-08-14T04:14:08.830Z,3.7
2022-08-14T04:15:09.219Z,2.7
2022-08-14T04:16:12.355Z,2.6
2022-08-14T04:17:09.986Z,2.7
2022-08-14T04:18:11.010Z,3.3
2022-08-14T04:19:07.961Z,2.8
2022-08-14T04:20:09.912Z,2.1
2022-08-14T04:21:08.761Z,2.6
2022-08-14T04:22:08.217Z,2.5
2022-08-14T04:23:08.595Z,2.6
2022-08-14T04:24:08.786Z,2.5
2022-08-14T04:25:08.876Z,3.0
2022-08-14T04:26:14.651Z,2.4
2022-08-14T04:27:09.437Z,2.6
2022-08-14T04:28:09.495Z,2.7
2022-08-14T04:29:15.622Z,2.6
2022-08-14T04:30:08.930Z,2.9
2022-08-14T04:31:08.366Z,2.4
2022-08-14T04:32:58.175Z,2.8
2022-08-14T04:33:17.170Z,2.8
2022-08-14T04:34:16.915Z,2.7
2022-08-14T04:35:10.613Z,2.1
2022-08-14T04:36:09.291Z,2.7
2022-08-14T04:37:08.396Z,2.8
2022-08-14T04:38:36.960Z,2.6
2022-08-14T04:39:08.667Z,2.3
2022-08-14T04:40:08.996Z,1.9
2022-08-14T04:41:08.339Z,2.5
2022-08-14T04:42:11.808Z,2.7
2022-08-14T04:43:07.939Z,3.3
2022-08-14T04:44:08.726Z,2.6
2022-08-14T04:45:08.502Z,2.6
2022-08-14T04:46:10.144Z,2.5
2022-08-14T04:47:08.132Z,2.8
2022-08-14T04:48:12.568Z,2.5
2022-08-14T04:49:08.674Z,2.4
2022-08-14T04:50:08.625Z,2.2
2022-08-14T04:51:09.459Z,2.3
2022-08-14T04:52:18.910Z,2.5
2022-08-14T04:53:08.615Z,1.3
2022-08-14T04:54:08.641Z,2.6
2022-08-14T04:55:08.505Z,2.5
2022-08-14T04:56:30.013Z,2.3
2022-08-14T04:57:08.097Z,2.8
2022-08-14T04:58:08.204Z,2.2
2022-08-14T04:59:10.328Z,2.3
2022-08-14T05:00:16.189Z,2.0
2022-08-14T05:01:12.700Z,2.4
2022-08-14T05:02:08.209Z,2.2
2022-08-14T05:03:07.920Z,2.7
2022-08-14T05:04:08.810Z,2.7
2022-08-14T05:05:08.489Z,1.8
2022-08-14T05:06:37.769Z,2.1
2022-08-14T05:07:08.118Z,2.2
2022-08-14T05:08:09.643Z,1.8
2022-08-14T05:09:13.899Z,2.4
2022-08-14T05:10:13.136Z,2.0
2022-08-14T05:11:11.845Z,1.9
2022-08-14T05:13:14.182Z,2.3
2022-08-14T05:13:14.481Z,2.0
2022-08-14T05:14:43.487Z,2.1
2022-08-14T05:15:08.715Z,2.1
2022-08-14T05:16:08.275Z,2.1
2022-08-14T05:17:08.666Z,1.9
2022-08-14T05:18:17.620Z,2.4
2022-08-14T05:19:18.095Z,2.2
2022-08-14T05:21:04.474Z,1.9
2022-08-14T05:22:00.260Z,2.1
2022-08-14T05:22:15.805Z,2.1
2022-08-14T05:23:07.910Z,2.9
2022-08-14T05:24:08.822Z,2.5
2022-08-14T05:25:08.518Z,2.0
2022-08-14T05:26:08.293Z,2.1
2022-08-14T05:27:08.091Z,2.2
2022-08-14T05:28:11.631Z,2.3
2022-08-14T05:29:08.583Z,2.5
2022-08-14T05:30:08.904Z,2.7
2022-08-14T05:31:08.337Z,2.2
2022-08-14T05:32:10.097Z,1.6
2022-08-14T05:33:08.169Z,3.1
2022-08-14T05:34:08.612Z,2.2
2022-08-14T05:35:08.449Z,2.6
2022-08-14T05:36:16.614Z,2.9
2022-08-14T05:37:08.097Z,2.5
2022-08-14T05:38:10.801Z,2.4
2022-08-14T05:39:08.625Z,2.2
2022-08-14T05:40:08.623Z,1.6
2022-08-14T05:41:09.266Z,2.1
2022-08-14T05:42:10.009Z,2.2
2022-08-14T05:43:08.235Z,1.5
2022-08-14T05:44:08.720Z,2.1
2022-08-14T05:45:11.313Z,1.8
2022-08-14T05:46:12.446Z,2.3
2022-08-14T05:47:08.090Z,1.4
2022-08-14T05:48:11.921Z,1.9
2022-08-14T05:49:08.542Z,1.8
2022-08-14T05:50:19.269Z,1.7
2022-08-14T05:51:08.212Z,2.1
2022-08-14T05:52:09.744Z,3.0
2022-08-14T05:53:08.812Z,2.7
2022-08-14T05:54:12.776Z,2.5
2022-08-14T05:55:09.597Z,1.9
2022-08-14T05:56:08.189Z,1.2
2022-08-14T05:57:08.045Z,1.6
2022-08-14T05:58:08.338Z,2.2
2022-08-14T05:59:09.270Z,2.2
2022-08-14T06:00:08.837Z,1.2
2022-08-14T06:01:08.226Z,1.1
2022-08-14T06:02:10.379Z,1.8
2022-08-14T06:03:10.244Z,2.0
2022-08-14T06:04:08.932Z,2.3
2022-08-14T06:05:08.409Z,1.7
2022-08-14T06:06:08.187Z,1.7
2022-08-14T06:07:07.997Z,2.5
2022-08-14T06:08:31.186Z,1.6
2022-08-14T06:09:09.870Z,1.8
2022-08-14T06:10:08.943Z,2.0
2022-08-14T06:11:08.489Z,2.1
2022-08-14T06:12:08.448Z,2.1
2022-08-14T06:13:09.054Z,1.8
2022-08-14T06:14:21.024Z,2.3
2022-08-14T06:15:09.079Z,1.4
2022-08-14T06:16:08.375Z,2.2
2022-08-14T06:17:07.969Z,1.5
2022-08-14T06:18:08.717Z,2.1
2022-08-14T06:19:11.478Z,2.9
2022-08-14T06:20:10.200Z,2.1
2022-08-14T06:21:12.991Z,1.7
2022-08-14T06:22:07.940Z,2.0
2022-08-14T06:23:08.710Z,2.3
2022-08-14T06:24:10.632Z,1.4
2022-08-14T06:25:08.995Z,3.1
2022-08-14T06:26:09.250Z,1.8
2022-08-14T06:27:10.138Z,1.7
2022-08-14T06:28:27.336Z,2.3
2022-08-14T06:29:08.483Z,2.1
2022-08-14T06:30:09.315Z,1.2
2022-08-14T06:31:08.096Z,1.4
2022-08-14T06:32:52.456Z,1.8
2022-08-14T06:33:08.685Z,1.5
2022-08-14T06:35:03.399Z,1.6
2022-08-14T06:35:12.499Z,1.5
2022-08-14T06:36:08.133Z,1.8
2022-08-14T06:37:07.984Z,2.6
2022-08-14T06:38:17.147Z,1.4
2022-08-14T06:39:10.091Z,2.5
2022-08-14T06:40:25.662Z,1.7
2022-08-14T06:41:10.880Z,1.6
2022-08-14T06:42:07.916Z,1.3
2022-08-14T06:43:09.882Z,1.2
2022-08-14T06:44:09.710Z,1.8
2022-08-14T06:45:08.710Z,1.4
2022-08-14T06:46:15.967Z,1.4
2022-08-14T06:47:07.950Z,2.0
2022-08-14T06:48:18.493Z,1.6
2022-08-14T06:49:08.463Z,2.0
2022-08-14T06:50:09.894Z,1.8
2022-08-14T06:51:08.192Z,2.1
2022-08-14T06:52:07.954Z,2.0
2022-08-14T06:53:08.787Z,1.9
2022-08-14T06:54:08.563Z,0.9
2022-08-14T06:55:09.306Z,1.5
2022-08-14T06:56:08.093Z,1.9
2022-08-14T06:57:07.929Z,2.2
2022-08-14T06:58:24.783Z,1.1
2022-08-14T06:59:08.400Z,1.5
2022-08-14T07:00:09.952Z,1.9
2022-08-14T07:01:08.121Z,1.7
2022-08-14T07:02:13.244Z,1.6
2022-08-14T07:03:08.627Z,1.4
2022-08-14T07:04:12.865Z,1.7
2022-08-14T07:05:08.247Z,1.5
2022-08-14T07:06:11.747Z,1.1
2022-08-14T07:07:07.879Z,0.9
2022-08-14T07:08:11.892Z,0.9
2022-08-14T07:09:09.065Z,2.1
2022-08-14T07:10:08.192Z,2.1
2022-08-14T07:11:08.526Z,1.9
2022-08-14T07:12:08.768Z,1.6
2022-08-14T07:13:09.846Z,1.2
2022-08-14T07:14:08.464Z,1.3
2022-08-14T07:15:08.653Z,1.1
2022-08-14T07:16:08.566Z,1.6
2022-08-14T07:17:07.855Z,1.4
2022-08-14T07:18:09.383Z,1.7
2022-08-14T07:19:08.327Z,2.0
2022-08-14T07:20:08.334Z,1.6
2022-08-14T07:21:08.299Z,2.0
2022-08-14T07:22:09.780Z,1.9
2022-08-14T07:23:19.575Z,1.9
2022-08-14T07:24:09.743Z,1.9
2022-08-14T07:25:08.597Z,1.5
2022-08-14T07:26:08.062Z,0.5
2022-08-14T07:27:08.802Z,1.1
2022-08-14T07:28:20.196Z,1.6
2022-08-14T07:29:08.337Z,1.1
2022-08-14T07:30:09.003Z,1.9
2022-08-14T07:31:08.674Z,1.6
2022-08-14T07:32:08.716Z,1.4
2022-08-14T07:33:08.982Z,1.9
2022-08-14T07:34:08.362Z,1.6
2022-08-14T07:35:08.253Z,1.5
2022-08-14T07:36:27.189Z,1.2
2022-08-14T07:37:08.711Z,1.1
2022-08-14T07:38:13.386Z,0.8
2022-08-14T07:39:12.401Z,2.0
2022-08-14T07:40:08.558Z,1.9
2022-08-14T07:41:14.450Z,1.8
2022-08-14T07:42:08.665Z,1.2
2022-08-14T07:43:14.417Z,1.5
2022-08-14T07:44:29.652Z,1.7
2022-08-14T07:45:08.438Z,2.0
2022-08-14T07:46:08.010Z,1.0
2022-08-14T07:47:08.635Z,1.7
2022-08-14T07:48:08.747Z,1.3
2022-08-14T07:49:08.264Z,1.2
2022-08-14T07:50:16.566Z,1.5
2022-08-14T07:51:11.245Z,1.3
2022-08-14T07:52:08.708Z,1.4
2022-08-14T07:53:08.581Z,1.8
2022-08-14T07:54:10.903Z,1.7
2022-08-14T07:55:09.257Z,1.7
2022-08-14T07:56:21.473Z,1.5
2022-08-14T07:57:12.475Z,1.6
2022-08-14T07:58:33.923Z,2.1
2022-08-14T07:59:09.018Z,2.6
2022-08-14T08:00:09.423Z,1.5
2022-08-14T08:01:08.741Z,1.8
2022-08-14T08:02:09.686Z,0.6
2022-08-14T08:03:08.796Z,1.6
2022-08-14T08:04:16.461Z,1.0
2022-08-14T08:05:08.877Z,1.6
2022-08-14T08:06:10.504Z,1.6
2022-08-14T08:07:08.740Z,2.1
2022-08-14T08:08:27.319Z,2.0
2022-08-14T08:09:08.510Z,1.7
2022-08-14T08:10:09.876Z,2.0
2022-08-14T08:11:08.764Z,2.5
2022-08-14T08:12:14.338Z,2.2
2022-08-14T08:13:12.512Z,1.2
2022-08-14T08:14:10.824Z,2.1
2022-08-14T08:15:08.403Z,1.9
2022-08-14T08:16:07.949Z,2.7
2022-08-14T08:17:09.253Z,2.8
2022-08-14T08:18:09.044Z,3.2
2022-08-14T08:19:12.886Z,2.8
2022-08-14T08:20:13.127Z,2.5
2022-08-14T08:21:07.974Z,2.5
2022-08-14T08:22:08.625Z,2.4
2022-08-14T08:23:08.486Z,2.1
2022-08-14T08:24:08.352Z,2.9
2022-08-14T08:25:13.688Z,1.9
2022-08-14T08:26:08.003Z,2.9
2022-08-14T08:27:17.755Z,2.6
2022-08-14T08:28:21.788Z,2.6
2022-08-14T08:29:08.263Z,2.6
2022-08-14T08:30:10.255Z,2.5
2022-08-14T08:31:08.266Z,3.0
2022-08-14T08:32:08.612Z,2.1
2022-08-14T08:33:09.147Z,2.1
2022-08-14T08:34:14.260Z,3.1
2022-08-14T08:35:21.286Z,3.2
2022-08-14T08:36:12.582Z,2.7
2022-08-14T08:37:08.544Z,3.2
2022-08-14T08:38:14.439Z,2.8
2022-08-14T08:39:18.185Z,2.9
2022-08-14T08:40:08.485Z,2.8
2022-08-14T08:41:11.087Z,3.2
2022-08-14T08:42:08.584Z,3.3
2022-08-14T08:43:13.322Z,3.2
2022-08-14T08:44:17.416Z,3.5
2022-08-14T08:45:12.264Z,3.6
2022-08-14T08:46:21.191Z,3.2
2022-08-14T08:47:08.603Z,3.1
2022-08-14T08:48:17.984Z,3.5
2022-08-14T08:49:08.238Z,3.8
2022-08-14T08:50:13.032Z,4.0
2022-08-14T08:51:08.350Z,4.1
2022-08-14T08:52:24.311Z,3.6
2022-08-14T08:53:09.352Z,3.2
2022-08-14T08:54:15.361Z,3.8
2022-08-14T08:55:08.248Z,4.0
2022-08-14T08:56:07.982Z,3.9
2022-08-14T08:57:11.522Z,3.8
2022-08-14T08:58:12.767Z,3.6
2022-08-14T08:59:21.239Z,3.7
2022-08-14T09:00:24.644Z,3.1
2022-08-14T09:01:07.914Z,3.7
2022-08-14T09:02:10.446Z,4.7
2022-08-14T09:03:10.021Z,5.0
2022-08-14T09:04:14.801Z,4.5
2022-08-14T09:05:08.121Z,3.9
2022-08-14T09:06:09.547Z,4.7
2022-08-14T09:07:11.188Z,4.0
2022-08-14T09:08:30.531Z,3.5
2022-08-14T09:09:24.322Z,4.3
2022-08-14T09:10:08.260Z,4.2
2022-08-14T09:11:19.513Z,4.3
2022-08-14T09:12:13.866Z,4.9
2022-08-14T09:13:08.811Z,6.8
2022-08-14T09:14:08.298Z,5.2
2022-08-14T09:15:11.646Z,4.5
2022-08-14T09:16:19.214Z,5.2
2022-08-14T09:17:08.722Z,4.7
2022-08-14T09:18:08.958Z,5.5
2022-08-14T09:19:09.057Z,4.9
2022-08-14T09:20:08.445Z,5.2
2022-08-14T09:21:07.954Z,6.5
2022-08-14T09:22:35.483Z,4.7
2022-08-14T09:23:08.920Z,5.7
2022-08-14T09:24:29.224Z,6.5
2022-08-14T09:25:08.199Z,6.0
2022-08-14T09:26:21.024Z,7.4
2022-08-14T09:27:09.005Z,6.8
2022-08-14T09:28:09.112Z,6.2
2022-08-14T09:29:09.781Z,5.6
2022-08-14T09:30:31.287Z,6.1
2022-08-14T09:31:17.732Z,5.5
2022-08-14T09:32:58.656Z,6.3
2022-08-14T09:33:22.988Z,5.3
2022-08-14T09:34:28.091Z,6.5
2022-08-14T09:35:13.088Z,5.9
2022-08-14T09:36:18.665Z,6.5
2022-08-14T09:37:31.579Z,4.7
2022-08-14T09:38:19.688Z,6.5
2022-08-14T09:39:26.467Z,6.3
2022-08-14T09:40:25.051Z,6.4
2022-08-14T09:41:12.868Z,6.0
2022-08-14T09:42:33.345Z,5.7
2022-08-14T09:43:22.495Z,6.7
2022-08-14T09:44:13.285Z,6.7
2022-08-14T09:45:18.286Z,6.4
2022-08-14T09:46:08.488Z,7.7
2022-08-14T09:47:08.483Z,7.3
2022-08-14T09:48:17.886Z,6.1
2022-08-14T09:49:16.561Z,6.5
2022-08-14T09:50:19.047Z,6.4
2022-08-14T09:51:13.334Z,5.2
2022-08-14T09:52:32.986Z,6.1
2022-08-14T09:53:17.717Z,5.5
2022-08-14T09:54:17.726Z,6.1
2022-08-14T09:55:13.573Z,6.3
2022-08-14T09:56:11.110Z,7.7
2022-08-14T09:57:16.489Z,6.6
2022-08-14T09:58:19.987Z,6.0
2022-08-14T09:59:11.923Z,6.7
2022-08-14T10:00:11.987Z,6.1
2022-08-14T10:01:09.374Z,7.2
2022-08-14T10:02:21.936Z,6.6
2022-08-14T10:03:08.694Z,5.6
2022-08-14T10:04:33.036Z,6.3
2022-08-14T10:05:09.306Z,5.7
2022-08-14T10:06:12.102Z,5.9
2022-08-14T10:07:08.920Z,6.4
2022-08-14T10:08:25.377Z,6.3
2022-08-14T10:09:12.054Z,5.8
2022-08-14T10:10:23.794Z,5.5
2022-08-14T10:11:23.198Z,7.1
2022-08-14T10:12:18.740Z,6.2
2022-08-14T10:13:22.290Z,5.8
2022-08-14T10:14:29.161Z,7.4
2022-08-14T10:15:21.054Z,6.6
2022-08-14T10:16:08.083Z,6.4
2022-08-14T10:17:08.423Z,6.2
2022-08-14T10:18:17.636Z,6.8
2022-08-14T10:19:09.456Z,6.5
2022-08-14T10:20:40.536Z,5.9
2022-08-14T10:21:09.683Z,6.0
2022-08-14T10:23:12.019Z,6.3
2022-08-14T10:23:17.919Z,6.1
2022-08-14T10:24:17.646Z,5.9
2022-08-14T10:25:12.043Z,6.0
2022-08-14T10:26:08.258Z,6.1
2022-08-14T10:27:17.631Z,5.7
2022-08-14T10:28:08.455Z,7.1
2022-08-14T10:29:19.316Z,6.0
2022-08-14T10:30:22.520Z,5.7
2022-08-14T10:31:25.763Z,5.2
2022-08-14T10:32:17.406Z,5.1
2022-08-14T10:33:08.453Z,5.8
2022-08-14T10:34:13.471Z,5.6
2022-08-14T10:35:14.583Z,5.6
2022-08-14T10:36:08.689Z,6.0
2022-08-14T10:37:14.823Z,6.6
2022-08-14T10:38:08.904Z,6.6
2022-08-14T10:39:15.526Z,5.3
2022-08-14T10:40:36.755Z,5.8
2022-08-14T10:41:12.433Z,6.8
2022-08-14T10:42:16.278Z,5.9
2022-08-14T10:43:18.716Z,6.0
2022-08-14T10:44:21.869Z,5.2
2022-08-14T10:45:25.584Z,5.4
2022-08-14T10:47:36.986Z,5.8
2022-08-14T10:47:41.686Z,5.2
2022-08-14T10:48:25.051Z,4.7
2022-08-14T10:49:13.423Z,5.6
2022-08-14T10:50:12.048Z,5.5
2022-08-14T10:51:08.423Z,5.1
2022-08-14T10:52:09.941Z,6.0
2022-08-14T10:53:08.752Z,5.6
2022-08-14T10:54:26.178Z,5.9
2022-08-14T10:55:15.687Z,5.9
2022-08-14T10:56:21.663Z,4.8
2022-08-14T10:57:15.830Z,4.5
2022-08-14T10:58:09.338Z,5.4
2022-08-14T10:59:08.124Z,6.2
2022-08-14T11:00:12.080Z,5.3
2022-08-14T11:01:08.804Z,5.7
2022-08-14T11:02:44.506Z,5.6
2022-08-14T11:03:10.882Z,5.7
2022-08-14T11:04:25.184Z,5.4
2022-08-14T11:05:12.529Z,5.4
2022-08-14T11:06:15.637Z,4.6
2022-08-14T11:07:13.698Z,5.5
2022-08-14T11:08:12.852Z,4.7
2022-08-14T11:09:11.121Z,4.5
2022-08-14T11:10:12.749Z,4.6
2022-08-14T11:11:08.638Z,5.1
2022-08-14T11:12:33.770Z,5.5
2022-08-14T11:13:08.314Z,5.5
2022-08-14T11:14:09.590Z,6.0
2022-08-14T11:15:08.302Z,6.0
2022-08-14T11:16:08.986Z,5.2
2022-08-14T11:17:09.455Z,5.4
2022-08-14T11:18:11.898Z,5.1
2022-08-14T11:19:09.111Z,5.2
2022-08-14T11:20:14.162Z,5.8
2022-08-14T11:21:09.546Z,4.9
2022-08-14T11:22:08.155Z,4.9
2022-08-14T11:23:10.328Z,4.8
2022-08-14T11:24:54.735Z,4.3
2022-08-14T11:25:10.280Z,4.4
2022-08-14T11:26:08.303Z,5.0
2022-08-14T11:27:08.336Z,5.0
2022-08-14T11:28:11.001Z,5.0
2022-08-14T11:29:09.237Z,4.8
2022-08-14T11:30:50.103Z,5.0
2022-08-14T11:31:09.478Z,5.0
2022-08-14T11:32:08.043Z,4.8
2022-08-14T11:33:09.368Z,4.7
2022-08-14T11:34:10.429Z,4.0
2022-08-14T11:35:15.865Z,4.2
2022-08-14T11:36:17.787Z,4.5
2022-08-14T11:37:18.220Z,4.4
2022-08-14T11:38:07.911Z,4.6
2022-08-14T11:39:13.466Z,5.1
2022-08-14T11:40:15.135Z,5.1
2022-08-14T11:41:09.291Z,4.7
2022-08-14T11:42:56.327Z,5.5
2022-08-14T11:43:08.554Z,4.9
2022-08-14T11:44:13.084Z,4.7
2022-08-14T11:45:11.302Z,4.2
2022-08-14T11:46:17.820Z,4.5
2022-08-14T11:47:10.073Z,5.0
2022-08-14T11:48:59.709Z,4.3
2022-08-14T11:49:08.644Z,4.9
2022-08-14T11:50:13.424Z,4.1
2022-08-14T11:51:12.377Z,3.5
2022-08-14T11:52:08.109Z,5.0
2022-08-14T11:53:12.840Z,4.4
2022-08-14T11:54:08.801Z,4.8
2022-08-14T11:55:09.119Z,4.6
2022-08-14T11:56:08.435Z,4.2
2022-08-14T11:57:14.518Z,4.5
2022-08-14T11:58:09.318Z,5.3
2022-08-14T11:59:13.506Z,4.8
2022-08-14T12:00:10.734Z,3.5
2022-08-14T12:01:08.479Z,4.3
2022-08-14T12:02:38.870Z,4.7
2022-08-14T12:03:08.085Z,5.0
2022-08-14T12:04:21.693Z,4.4
2022-08-14T12:05:09.299Z,5.0
2022-08-14T12:06:29.511Z,4.1
2022-08-14T12:07:08.103Z,5.0
2022-08-14T12:08:11.104Z,4.3
2022-08-14T12:09:14.840Z,3.9
2022-08-14T12:10:26.427Z,4.6
2022-08-14T12:11:08.999Z,4.1
2022-08-14T12:12:35.060Z,4.3
2022-08-14T12:13:14.704Z,4.4
2022-08-14T12:14:31.066Z,4.7
2022-08-14T12:15:08.867Z,4.1
2022-08-14T12:16:11.303Z,4.1
2022-08-14T12:17:12.539Z,5.0
2022-08-14T12:18:11.227Z,4.6
2022-08-14T12:19:09.277Z,4.6
2022-08-14T12:20:09.438Z,4.1
2022-08-14T12:21:15.727Z,4.0
2022-08-14T12:22:08.182Z,4.4
2022-08-14T12:23:12.832Z,3.9
2022-08-14T12:24:09.731Z,3.8
2022-08-14T12:25:12.596Z,4.1
2022-08-14T12:26:39.681Z,4.2
2022-08-14T12:27:08.152Z,4.3
2022-08-14T12:28:10.068Z,4.2
2022-08-14T12:29:09.729Z,4.7
2022-08-14T12:30:11.545Z,3.6
2022-08-14T12:31:12.065Z,4.7
2022-08-14T12:32:09.037Z,3.5
2022-08-14T12:33:33.384Z,4.7
2022-08-14T12:34:10.786Z,3.1
2022-08-14T12:35:08.969Z,3.7
2022-08-14T12:36:09.108Z,3.8
2022-08-14T12:37:08.253Z,3.3
2022-08-14T12:38:08.945Z,3.5
2022-08-14T12:39:19.611Z,4.1
2022-08-14T12:40:09.419Z,4.3
2022-08-14T12:41:20.802Z,4.4
2022-08-14T12:42:08.178Z,4.7
2022-08-14T12:43:08.051Z,5.2
2022-08-14T12:44:08.764Z,4.7
2022-08-14T12:45:09.310Z,4.9
2022-08-14T12:46:08.475Z,4.6
2022-08-14T12:47:13.685Z,5.1
2022-08-14T12:48:21.605Z,5.0
2022-08-14T12:49:12.713Z,5.0
2022-08-14T12:50:09.433Z,5.4
2022-08-14T12:51:12.801Z,5.3
2022-08-14T12:52:17.023Z,5.0
2022-08-14T12:53:14.420Z,4.6
2022-08-14T12:54:19.412Z,4.9
2022-08-14T12:55:09.553Z,4.7
2022-08-14T12:56:22.357Z,5.7
2022-08-14T12:57:17.058Z,5.1
2022-08-14T12:58:28.679Z,5.3
2022-08-14T12:59:08.309Z,4.7
2022-08-14T13:00:23.220Z,5.6
2022-08-14T13:01:16.881Z,5.6
2022-08-14T13:02:14.458Z,5.3
2022-08-14T13:03:08.426Z,5.7
2022-08-14T13:04:10.142Z,4.6
2022-08-14T13:05:08.885Z,5.7
2022-08-14T13:06:07.939Z,5.1
2022-08-14T13:07:08.645Z,4.4
2022-08-14T13:08:32.937Z,5.4
2022-08-14T13:09:11.294Z,5.9
2022-08-14T13:10:45.637Z,5.2
2022-08-14T13:11:11.868Z,4.7
2022-08-14T13:12:34.933Z,4.2
2022-08-14T13:13:15.728Z,5.1
2022-08-14T13:14:09.631Z,5.2
2022-08-14T13:15:11.714Z,5.5
2022-08-14T13:16:10.695Z,5.6
2022-08-14T13:17:09.339Z,4.9
2022-08-14T13:18:08.704Z,5.1
2022-08-14T13:19:11.652Z,5.6
2022-08-14T13:20:10.376Z,6.0
2022-08-14T13:21:10.611Z,5.1
2022-08-14T13:22:10.262Z,4.6
2022-08-14T13:23:09.022Z,5.0
2022-08-14T13:24:08.365Z,5.1
2022-08-14T13:25:08.679Z,6.3
2022-08-14T13:26:07.935Z,6.4
2022-08-14T13:27:11.056Z,5.2
2022-08-14T13:28:11.176Z,4.6
2022-08-14T13:29:08.688Z,4.2
2022-08-14T13:30:10.454Z,4.6
2022-08-14T13:31:11.451Z,5.2
2022-08-14T13:32:08.268Z,5.5
2022-08-14T13:33:08.196Z,5.3
2022-08-14T13:34:10.993Z,5.3
2022-08-14T13:35:12.218Z,6.2
2022-08-14T13:36:23.567Z,5.3
2022-08-14T13:37:09.076Z,5.8
2022-08-14T13:38:10.360Z,5.0
2022-08-14T13:39:08.342Z,5.8
2022-08-14T13:40:08.657Z,4.0
2022-08-14T13:41:08.849Z,4.4
2022-08-14T13:42:13.170Z,4.9
2022-08-14T13:43:08.569Z,5.0
2022-08-14T13:44:13.907Z,4.0
2022-08-14T13:45:08.690Z,5.6
2022-08-14T13:46:07.981Z,4.3